sensor_id;sensor_type;location;lat;lon;timestamp;P1;durP1;ratioP1;P2;durP2;ratioP2
14994;SDS011;7593;49.006;8.372;2023-02-28T00:01:19;4.80;;;3.47;;
14994;SDS011;7593;49.006;8.372;2023-02-28T00:03:46;5.17;;;3.67;;
14994;SDS011;7593;49.006;8.372;2023-02-28T00:06:13;3.73;;;3.00;;
14994;SDS011;7593;49.006;8.372;2023-02-28T00:08:41;6.03;;;3.70;;
14994;SDS011;7593;49.006;8.372;2023-02-28T00:11:09;4.80;;;3.37;;
14994;SDS011;7593;49.006;8.372;2023-02-28T00:13:39;5.70;;;3.40;;
14994;SDS011;7593;49.006;8.372;2023-02-28T00:16:08;3.73;;;3.03;;
14994;SDS011;7593;49.006;8.372;2023-02-28T00:18:36;4.33;;;3.47;;
14994;SDS011;7593;49.006;8.372;2023-02-28T00:21:04;5.17;;;3.50;;
14994;SDS011;7593;49.006;8.372;2023-02-28T00:23:31;3.80;;;3.10;;
14994;SDS011;7593;49.006;8.372;2023-02-28T00:25:59;4.77;;;3.37;;
14994;SDS011;7593;49.006;8.372;2023-02-28T00:28:26;4.10;;;3.30;;
14994;SDS011;7593;49.006;8.372;2023-02-28T00:30:52;4.23;;;3.50;;
14994;SDS011;7593;49.006;8.372;2023-02-28T00:33:20;3.37;;;3.07;;
14994;SDS011;7593;49.006;8.372;2023-02-28T00:35:47;5.87;;;3.80;;
14994;SDS011;7593;49.006;8.372;2023-02-28T00:38:14;3.97;;;3.30;;
14994;SDS011;7593;49.006;8.372;2023-02-28T00:40:41;4.83;;;3.23;;
14994;SDS011;7593;49.006;8.372;2023-02-28T00:43:09;4.13;;;3.73;;
14994;SDS011;7593;49.006;8.372;2023-02-28T00:45:36;4.20;;;3.57;;
14994;SDS011;7593;49.006;8.372;2023-02-28T00:48:03;3.27;;;2.97;;
14994;SDS011;7593;49.006;8.372;2023-02-28T00:50:30;4.00;;;3.60;;
14994;SDS011;7593;49.006;8.372;2023-02-28T00:52:57;3.50;;;3.20;;
14994;SDS011;7593;49.006;8.372;2023-02-28T00:55:24;4.60;;;3.77;;
14994;SDS011;7593;49.006;8.372;2023-02-28T00:57:50;3.47;;;3.17;;
14994;SDS011;7593;49.006;8.372;2023-02-28T01:00:19;3.67;;;3.20;;
14994;SDS011;7593;49.006;8.372;2023-02-28T01:02:46;3.80;;;3.30;;
14994;SDS011;7593;49.006;8.372;2023-02-28T01:05:13;3.90;;;3.37;;
14994;SDS011;7593;49.006;8.372;2023-02-28T01:07:39;3.57;;;3.27;;
14994;SDS011;7593;49.006;8.372;2023-02-28T01:10:07;3.77;;;3.47;;
14994;SDS011;7593;49.006;8.372;2023-02-28T01:12:34;3.60;;;3.30;;
14994;SDS011;7593;49.006;8.372;2023-02-28T01:15:01;4.20;;;3.80;;
14994;SDS011;7593;49.006;8.372;2023-02-28T01:17:30;3.70;;;3.30;;
14994;SDS011;7593;49.006;8.372;2023-02-28T01:19:57;4.40;;;4.00;;
14994;SDS011;7593;49.006;8.372;2023-02-28T01:22:23;4.23;;;3.80;;
14994;SDS011;7593;49.006;8.372;2023-02-28T01:24:50;4.30;;;3.90;;
14994;SDS011;7593;49.006;8.372;2023-02-28T01:27:17;4.53;;;4.13;;
14994;SDS011;7593;49.006;8.372;2023-02-28T01:29:44;3.47;;;2.90;;
14994;SDS011;7593;49.006;8.372;2023-02-28T01:32:11;3.33;;;3.03;;
14994;SDS011;7593;49.006;8.372;2023-02-28T01:34:39;3.47;;;3.17;;
14994;SDS011;7593;49.006;8.372;2023-02-28T01:37:06;3.77;;;3.40;;
14994;SDS011;7593;49.006;8.372;2023-02-28T01:39:32;3.30;;;2.90;;
14994;SDS011;7593;49.006;8.372;2023-02-28T01:41:59;4.07;;;3.57;;
14994;SDS011;7593;49.006;8.372;2023-02-28T01:47:23;5.77;;;3.30;;
14994;SDS011;7593;49.006;8.372;2023-02-28T01:49:56;3.53;;;3.20;;
14994;SDS011;7593;49.006;8.372;2023-02-28T01:52:24;3.50;;;3.20;;
14994;SDS011;7593;49.006;8.372;2023-02-28T01:54:52;4.97;;;3.20;;
14994;SDS011;7593;49.006;8.372;2023-02-28T01:57:23;3.57;;;3.10;;
14994;SDS011;7593;49.006;8.372;2023-02-28T01:59:54;3.93;;;3.50;;
14994;SDS011;7593;49.006;8.372;2023-02-28T02:02:24;5.30;;;3.33;;
14994;SDS011;7593;49.006;8.372;2023-02-28T02:04:53;4.37;;;3.20;;
14994;SDS011;7593;49.006;8.372;2023-02-28T02:07:24;3.50;;;3.13;;
14994;SDS011;7593;49.006;8.372;2023-02-28T02:09:58;3.27;;;2.97;;
14994;SDS011;7593;49.006;8.372;2023-02-28T02:12:29;3.50;;;3.20;;
14994;SDS011;7593;49.006;8.372;2023-02-28T02:15:07;3.40;;;2.90;;
14994;SDS011;7593;49.006;8.372;2023-02-28T02:17:39;3.53;;;3.23;;
14994;SDS011;7593;49.006;8.372;2023-02-28T02:26:40;5.77;;;4.73;;
14994;SDS011;7593;49.006;8.372;2023-02-28T02:29:30;4.30;;;3.87;;
14994;SDS011;7593;49.006;8.372;2023-02-28T02:32:17;4.23;;;2.93;;
14994;SDS011;7593;49.006;8.372;2023-02-28T02:35:01;3.60;;;3.20;;
14994;SDS011;7593;49.006;8.372;2023-02-28T02:37:39;3.73;;;3.10;;
14994;SDS011;7593;49.006;8.372;2023-02-28T02:40:10;3.70;;;3.30;;
14994;SDS011;7593;49.006;8.372;2023-02-28T02:42:42;4.23;;;3.80;;
14994;SDS011;7593;49.006;8.372;2023-02-28T02:45:14;3.50;;;3.20;;
14994;SDS011;7593;49.006;8.372;2023-02-28T02:47:45;3.60;;;3.30;;
14994;SDS011;7593;49.006;8.372;2023-02-28T02:50:15;4.37;;;3.70;;
14994;SDS011;7593;49.006;8.372;2023-02-28T02:52:46;4.07;;;3.30;;
14994;SDS011;7593;49.006;8.372;2023-02-28T02:55:18;3.60;;;3.00;;
14994;SDS011;7593;49.006;8.372;2023-02-28T02:57:49;3.50;;;3.20;;
14994;SDS011;7593;49.006;8.372;2023-02-28T03:00:20;3.63;;;3.33;;
14994;SDS011;7593;49.006;8.372;2023-02-28T03:02:52;4.20;;;3.30;;
14994;SDS011;7593;49.006;8.372;2023-02-28T03:05:23;4.40;;;3.70;;
14994;SDS011;7593;49.006;8.372;2023-02-28T03:07:52;4.27;;;3.87;;
14994;SDS011;7593;49.006;8.372;2023-02-28T03:10:27;3.73;;;3.37;;
14994;SDS011;7593;49.006;8.372;2023-02-28T03:13:00;4.13;;;3.70;;
14994;SDS011;7593;49.006;8.372;2023-02-28T03:15:56;3.53;;;3.23;;
14994;SDS011;7593;49.006;8.372;2023-02-28T03:18:32;4.23;;;3.40;;
14994;SDS011;7593;49.006;8.372;2023-02-28T03:21:09;5.07;;;3.67;;
14994;SDS011;7593;49.006;8.372;2023-02-28T03:23:45;4.43;;;3.53;;
14994;SDS011;7593;49.006;8.372;2023-02-28T03:26:20;5.20;;;4.03;;
14994;SDS011;7593;49.006;8.372;2023-02-28T03:28:51;7.80;;;4.27;;
14994;SDS011;7593;49.006;8.372;2023-02-28T03:31:26;4.43;;;3.83;;
14994;SDS011;7593;49.006;8.372;2023-02-28T03:33:57;4.10;;;3.70;;
14994;SDS011;7593;49.006;8.372;2023-02-28T03:36:29;4.57;;;3.60;;
14994;SDS011;7593;49.006;8.372;2023-02-28T03:39:02;4.17;;;3.77;;
14994;SDS011;7593;49.006;8.372;2023-02-28T03:41:32;4.97;;;3.87;;
14994;SDS011;7593;49.006;8.372;2023-02-28T03:44:05;4.50;;;3.87;;
14994;SDS011;7593;49.006;8.372;2023-02-28T03:46:35;4.10;;;3.77;;
14994;SDS011;7593;49.006;8.372;2023-02-28T03:49:06;4.47;;;3.83;;
14994;SDS011;7593;49.006;8.372;2023-02-28T03:51:40;4.37;;;3.93;;
14994;SDS011;7593;49.006;8.372;2023-02-28T03:54:09;4.43;;;4.03;;
14994;SDS011;7593;49.006;8.372;2023-02-28T03:56:42;4.40;;;3.67;;
14994;SDS011;7593;49.006;8.372;2023-02-28T03:59:15;5.00;;;4.10;;
14994;SDS011;7593;49.006;8.372;2023-02-28T04:01:47;5.30;;;3.80;;
14994;SDS011;7593;49.006;8.372;2023-02-28T04:04:15;4.67;;;4.13;;
14994;SDS011;7593;49.006;8.372;2023-02-28T04:06:44;4.20;;;3.80;;
14994;SDS011;7593;49.006;8.372;2023-02-28T04:09:12;6.03;;;4.20;;
14994;SDS011;7593;49.006;8.372;2023-02-28T04:11:40;4.13;;;3.73;;
14994;SDS011;7593;49.006;8.372;2023-02-28T04:14:08;4.90;;;4.00;;
14994;SDS011;7593;49.006;8.372;2023-02-28T04:16:37;3.93;;;3.53;;
14994;SDS011;7593;49.006;8.372;2023-02-28T04:19:05;4.37;;;3.97;;
14994;SDS011;7593;49.006;8.372;2023-02-28T04:21:34;4.80;;;3.90;;
14994;SDS011;7593;49.006;8.372;2023-02-28T04:24:05;4.37;;;3.97;;
14994;SDS011;7593;49.006;8.372;2023-02-28T04:26:34;4.73;;;4.17;;
14994;SDS011;7593;49.006;8.372;2023-02-28T04:29:02;4.60;;;4.20;;
14994;SDS011;7593;49.006;8.372;2023-02-28T04:31:30;4.63;;;3.83;;
14994;SDS011;7593;49.006;8.372;2023-02-28T04:33:57;5.03;;;4.30;;
14994;SDS011;7593;49.006;8.372;2023-02-28T04:36:24;6.07;;;4.10;;
14994;SDS011;7593;49.006;8.372;2023-02-28T04:38:51;5.40;;;4.13;;
14994;SDS011;7593;49.006;8.372;2023-02-28T04:41:19;4.77;;;4.27;;
14994;SDS011;7593;49.006;8.372;2023-02-28T04:43:47;5.73;;;4.20;;
14994;SDS011;7593;49.006;8.372;2023-02-28T04:46:14;5.00;;;4.47;;
14994;SDS011;7593;49.006;8.372;2023-02-28T04:48:41;5.37;;;4.33;;
14994;SDS011;7593;49.006;8.372;2023-02-28T04:51:09;4.10;;;3.70;;
14994;SDS011;7593;49.006;8.372;2023-02-28T04:53:38;6.17;;;4.43;;
14994;SDS011;7593;49.006;8.372;2023-02-28T04:56:06;4.77;;;4.27;;
14994;SDS011;7593;49.006;8.372;2023-02-28T04:58:35;4.53;;;4.07;;
14994;SDS011;7593;49.006;8.372;2023-02-28T05:01:02;4.73;;;4.30;;
14994;SDS011;7593;49.006;8.372;2023-02-28T05:03:37;5.07;;;4.33;;
14994;SDS011;7593;49.006;8.372;2023-02-28T05:06:05;4.77;;;4.27;;
14994;SDS011;7593;49.006;8.372;2023-02-28T05:08:32;4.67;;;4.10;;
14994;SDS011;7593;49.006;8.372;2023-02-28T05:10:59;5.20;;;4.30;;
14994;SDS011;7593;49.006;8.372;2023-02-28T05:13:26;4.90;;;4.40;;
14994;SDS011;7593;49.006;8.372;2023-02-28T05:15:55;4.73;;;4.23;;
14994;SDS011;7593;49.006;8.372;2023-02-28T05:18:22;4.63;;;4.17;;
14994;SDS011;7593;49.006;8.372;2023-02-28T05:20:48;5.03;;;4.53;;
14994;SDS011;7593;49.006;8.372;2023-02-28T05:23:15;5.27;;;4.40;;
14994;SDS011;7593;49.006;8.372;2023-02-28T05:25:43;4.97;;;4.57;;
14994;SDS011;7593;49.006;8.372;2023-02-28T05:28:10;5.07;;;4.57;;
14994;SDS011;7593;49.006;8.372;2023-02-28T05:30:37;6.20;;;5.30;;
14994;SDS011;7593;49.006;8.372;2023-02-28T05:33:05;5.30;;;4.80;;
14994;SDS011;7593;49.006;8.372;2023-02-28T05:35:32;4.97;;;4.47;;
14994;SDS011;7593;49.006;8.372;2023-02-28T05:37:58;8.93;;;5.07;;
14994;SDS011;7593;49.006;8.372;2023-02-28T05:40:25;5.60;;;5.00;;
14994;SDS011;7593;49.006;8.372;2023-02-28T05:42:52;6.57;;;4.80;;
14994;SDS011;7593;49.006;8.372;2023-02-28T05:45:19;6.43;;;5.27;;
14994;SDS011;7593;49.006;8.372;2023-02-28T05:47:45;7.40;;;5.10;;
14994;SDS011;7593;49.006;8.372;2023-02-28T05:50:13;6.33;;;4.90;;
14994;SDS011;7593;49.006;8.372;2023-02-28T05:52:40;7.13;;;5.13;;
14994;SDS011;7593;49.006;8.372;2023-02-28T05:55:08;6.10;;;5.50;;
14994;SDS011;7593;49.006;8.372;2023-02-28T05:57:35;5.90;;;5.20;;
14994;SDS011;7593;49.006;8.372;2023-02-28T06:00:02;6.80;;;5.80;;
14994;SDS011;7593;49.006;8.372;2023-02-28T06:02:32;7.43;;;5.80;;
14994;SDS011;7593;49.006;8.372;2023-02-28T06:04:59;7.70;;;6.27;;
14994;SDS011;7593;49.006;8.372;2023-02-28T06:07:27;7.13;;;5.27;;
14994;SDS011;7593;49.006;8.372;2023-02-28T06:09:54;6.17;;;5.57;;
14994;SDS011;7593;49.006;8.372;2023-02-28T06:12:20;7.10;;;6.40;;
14994;SDS011;7593;49.006;8.372;2023-02-28T06:14:47;6.20;;;5.60;;
14994;SDS011;7593;49.006;8.372;2023-02-28T06:17:14;7.60;;;5.47;;
14994;SDS011;7593;49.006;8.372;2023-02-28T06:19:41;11.07;;;5.40;;
14994;SDS011;7593;49.006;8.372;2023-02-28T06:22:07;8.10;;;5.37;;
14994;SDS011;7593;49.006;8.372;2023-02-28T06:24:36;7.20;;;5.33;;
14994;SDS011;7593;49.006;8.372;2023-02-28T06:27:02;7.10;;;5.20;;
14994;SDS011;7593;49.006;8.372;2023-02-28T06:29:30;5.97;;;4.83;;
14994;SDS011;7593;49.006;8.372;2023-02-28T06:31:57;5.90;;;5.30;;
14994;SDS011;7593;49.006;8.372;2023-02-28T06:34:24;7.50;;;5.47;;
14994;SDS011;7593;49.006;8.372;2023-02-28T06:36:51;5.27;;;4.77;;
14994;SDS011;7593;49.006;8.372;2023-02-28T06:39:18;5.73;;;5.13;;
14994;SDS011;7593;49.006;8.372;2023-02-28T06:41:46;7.00;;;5.17;;
14994;SDS011;7593;49.006;8.372;2023-02-28T06:44:13;5.57;;;5.03;;
14994;SDS011;7593;49.006;8.372;2023-02-28T06:46:42;8.47;;;5.77;;
14994;SDS011;7593;49.006;8.372;2023-02-28T06:49:10;5.20;;;4.53;;
14994;SDS011;7593;49.006;8.372;2023-02-28T06:51:38;5.40;;;4.77;;
14994;SDS011;7593;49.006;8.372;2023-02-28T06:54:06;5.23;;;4.73;;
14994;SDS011;7593;49.006;8.372;2023-02-28T06:56:34;4.50;;;4.10;;
14994;SDS011;7593;49.006;8.372;2023-02-28T06:59:02;5.90;;;4.70;;
14994;SDS011;7593;49.006;8.372;2023-02-28T07:01:29;5.70;;;4.63;;
14994;SDS011;7593;49.006;8.372;2023-02-28T07:03:56;6.13;;;4.77;;
14994;SDS011;7593;49.006;8.372;2023-02-28T07:06:23;5.33;;;4.67;;
14994;SDS011;7593;49.006;8.372;2023-02-28T07:08:51;9.93;;;5.07;;
14994;SDS011;7593;49.006;8.372;2023-02-28T07:11:18;5.37;;;4.50;;
14994;SDS011;7593;49.006;8.372;2023-02-28T07:13:47;5.40;;;4.73;;
14994;SDS011;7593;49.006;8.372;2023-02-28T07:16:15;8.43;;;5.37;;
14994;SDS011;7593;49.006;8.372;2023-02-28T07:18:45;6.83;;;5.03;;
14994;SDS011;7593;49.006;8.372;2023-02-28T07:21:12;5.80;;;5.13;;
14994;SDS011;7593;49.006;8.372;2023-02-28T07:23:39;6.83;;;5.30;;
14994;SDS011;7593;49.006;8.372;2023-02-28T07:26:10;5.60;;;4.97;;
14994;SDS011;7593;49.006;8.372;2023-02-28T07:28:39;5.60;;;5.10;;
14994;SDS011;7593;49.006;8.372;2023-02-28T07:31:07;7.50;;;5.10;;
14994;SDS011;7593;49.006;8.372;2023-02-28T07:33:36;7.10;;;4.67;;
14994;SDS011;7593;49.006;8.372;2023-02-28T07:36:04;10.90;;;5.17;;
14994;SDS011;7593;49.006;8.372;2023-02-28T07:38:33;17.87;;;6.53;;
14994;SDS011;7593;49.006;8.372;2023-02-28T07:41:00;5.80;;;5.20;;
14994;SDS011;7593;49.006;8.372;2023-02-28T07:43:29;5.50;;;4.77;;
14994;SDS011;7593;49.006;8.372;2023-02-28T07:45:56;6.03;;;4.90;;
14994;SDS011;7593;49.006;8.372;2023-02-28T07:48:28;6.07;;;5.27;;
14994;SDS011;7593;49.006;8.372;2023-02-28T07:50:56;7.80;;;5.20;;
14994;SDS011;7593;49.006;8.372;2023-02-28T07:53:23;27.73;;;6.10;;
14994;SDS011;7593;49.006;8.372;2023-02-28T07:55:50;13.77;;;5.30;;
14994;SDS011;7593;49.006;8.372;2023-02-28T07:58:20;8.50;;;5.47;;
14994;SDS011;7593;49.006;8.372;2023-02-28T08:00:47;11.10;;;5.57;;
14994;SDS011;7593;49.006;8.372;2023-02-28T08:03:13;7.33;;;5.83;;
14994;SDS011;7593;49.006;8.372;2023-02-28T08:05:40;20.50;;;6.23;;
14994;SDS011;7593;49.006;8.372;2023-02-28T08:08:08;20.13;;;6.27;;
14994;SDS011;7593;49.006;8.372;2023-02-28T08:10:35;8.00;;;5.83;;
14994;SDS011;7593;49.006;8.372;2023-02-28T08:13:02;10.20;;;5.50;;
14994;SDS011;7593;49.006;8.372;2023-02-28T08:15:29;9.13;;;5.63;;
14994;SDS011;7593;49.006;8.372;2023-02-28T08:17:56;7.80;;;5.17;;
14994;SDS011;7593;49.006;8.372;2023-02-28T08:20:23;6.80;;;5.30;;
14994;SDS011;7593;49.006;8.372;2023-02-28T08:22:50;8.77;;;5.50;;
14994;SDS011;7593;49.006;8.372;2023-02-28T08:25:18;11.83;;;5.77;;
14994;SDS011;7593;49.006;8.372;2023-02-28T08:27:45;15.53;;;5.30;;
14994;SDS011;7593;49.006;8.372;2023-02-28T08:30:12;11.93;;;5.83;;
14994;SDS011;7593;49.006;8.372;2023-02-28T08:32:40;15.70;;;6.03;;
14994;SDS011;7593;49.006;8.372;2023-02-28T08:35:07;7.10;;;5.87;;
14994;SDS011;7593;49.006;8.372;2023-02-28T08:37:35;10.43;;;5.87;;
14994;SDS011;7593;49.006;8.372;2023-02-28T08:40:02;6.30;;;5.70;;
14994;SDS011;7593;49.006;8.372;2023-02-28T08:42:31;7.80;;;6.10;;
14994;SDS011;7593;49.006;8.372;2023-02-28T08:44:58;7.60;;;5.80;;
14994;SDS011;7593;49.006;8.372;2023-02-28T08:47:25;8.43;;;6.23;;
14994;SDS011;7593;49.006;8.372;2023-02-28T08:49:51;9.43;;;6.60;;
14994;SDS011;7593;49.006;8.372;2023-02-28T08:52:18;12.30;;;5.57;;
14994;SDS011;7593;49.006;8.372;2023-02-28T08:54:45;8.83;;;5.97;;
14994;SDS011;7593;49.006;8.372;2023-02-28T08:57:11;6.63;;;5.97;;
14994;SDS011;7593;49.006;8.372;2023-02-28T08:59:40;7.83;;;6.23;;
14994;SDS011;7593;49.006;8.372;2023-02-28T09:02:08;7.73;;;6.07;;
14994;SDS011;7593;49.006;8.372;2023-02-28T09:04:35;7.77;;;5.97;;
14994;SDS011;7593;49.006;8.372;2023-02-28T09:07:02;6.63;;;5.93;;
14994;SDS011;7593;49.006;8.372;2023-02-28T09:09:28;6.40;;;5.67;;
14994;SDS011;7593;49.006;8.372;2023-02-28T09:11:55;9.13;;;6.90;;
14994;SDS011;7593;49.006;8.372;2023-02-28T09:14:22;7.43;;;6.43;;
14994;SDS011;7593;49.006;8.372;2023-02-28T09:16:50;6.83;;;6.07;;
14994;SDS011;7593;49.006;8.372;2023-02-28T09:19:17;6.60;;;5.87;;
14994;SDS011;7593;49.006;8.372;2023-02-28T09:21:43;8.63;;;6.00;;
14994;SDS011;7593;49.006;8.372;2023-02-28T09:24:10;9.47;;;5.97;;
14994;SDS011;7593;49.006;8.372;2023-02-28T09:26:39;7.03;;;6.20;;
14994;SDS011;7593;49.006;8.372;2023-02-28T09:29:06;6.47;;;5.87;;
14994;SDS011;7593;49.006;8.372;2023-02-28T09:31:33;6.60;;;5.50;;
14994;SDS011;7593;49.006;8.372;2023-02-28T09:34:01;6.80;;;6.10;;
14994;SDS011;7593;49.006;8.372;2023-02-28T09:36:27;11.17;;;6.43;;
14994;SDS011;7593;49.006;8.372;2023-02-28T09:38:54;13.07;;;6.60;;
14994;SDS011;7593;49.006;8.372;2023-02-28T09:41:22;13.60;;;6.80;;
14994;SDS011;7593;49.006;8.372;2023-02-28T09:43:53;10.43;;;6.63;;
14994;SDS011;7593;49.006;8.372;2023-02-28T09:46:27;7.73;;;6.43;;
14994;SDS011;7593;49.006;8.372;2023-02-28T09:48:57;9.00;;;7.20;;
14994;SDS011;7593;49.006;8.372;2023-02-28T09:54:16;28.03;;;8.03;;
14994;SDS011;7593;49.006;8.372;2023-02-28T09:56:48;13.87;;;6.57;;
14994;SDS011;7593;49.006;8.372;2023-02-28T09:59:23;12.87;;;7.00;;
14994;SDS011;7593;49.006;8.372;2023-02-28T10:01:59;12.30;;;6.77;;
14994;SDS011;7593;49.006;8.372;2023-02-28T10:04:36;19.40;;;7.30;;
14994;SDS011;7593;49.006;8.372;2023-02-28T10:07:14;12.00;;;6.80;;
14994;SDS011;7593;49.006;8.372;2023-02-28T10:09:50;14.00;;;6.43;;
14994;SDS011;7593;49.006;8.372;2023-02-28T10:12:20;7.30;;;6.07;;
14994;SDS011;7593;49.006;8.372;2023-02-28T10:14:49;7.80;;;6.50;;
14994;SDS011;7593;49.006;8.372;2023-02-28T10:17:21;8.47;;;7.07;;
14994;SDS011;7593;49.006;8.372;2023-02-28T10:19:53;7.93;;;6.17;;
14994;SDS011;7593;49.006;8.372;2023-02-28T10:22:26;17.53;;;8.00;;
14994;SDS011;7593;49.006;8.372;2023-02-28T10:24:57;7.73;;;6.83;;
14994;SDS011;7593;49.006;8.372;2023-02-28T10:27:28;12.40;;;7.13;;
14994;SDS011;7593;49.006;8.372;2023-02-28T10:29:58;10.67;;;7.07;;
14994;SDS011;7593;49.006;8.372;2023-02-28T10:32:27;12.40;;;6.80;;
14994;SDS011;7593;49.006;8.372;2023-02-28T10:34:57;7.93;;;6.70;;
14994;SDS011;7593;49.006;8.372;2023-02-28T10:37:28;12.03;;;7.30;;
14994;SDS011;7593;49.006;8.372;2023-02-28T10:39:56;10.33;;;6.97;;
14994;SDS011;7593;49.006;8.372;2023-02-28T10:42:24;13.67;;;7.57;;
14994;SDS011;7593;49.006;8.372;2023-02-28T10:45:10;15.93;;;6.80;;
14994;SDS011;7593;49.006;8.372;2023-02-28T10:47:44;11.63;;;7.13;;
14994;SDS011;7593;49.006;8.372;2023-02-28T10:50:27;11.97;;;7.83;;
14994;SDS011;7593;49.006;8.372;2023-02-28T10:52:57;10.47;;;7.10;;
14994;SDS011;7593;49.006;8.372;2023-02-28T10:55:34;13.90;;;7.80;;
14994;SDS011;7593;49.006;8.372;2023-02-28T10:58:02;15.50;;;7.60;;
14994;SDS011;7593;49.006;8.372;2023-02-28T11:00:39;11.70;;;6.90;;
14994;SDS011;7593;49.006;8.372;2023-02-28T11:03:09;11.07;;;7.37;;
14994;SDS011;7593;49.006;8.372;2023-02-28T11:05:50;8.13;;;7.10;;
14994;SDS011;7593;49.006;8.372;2023-02-28T11:08:19;9.97;;;7.43;;
14994;SDS011;7593;49.006;8.372;2023-02-28T11:10:47;8.30;;;6.97;;
14994;SDS011;7593;49.006;8.372;2023-02-28T11:13:20;7.83;;;6.83;;
14994;SDS011;7593;49.006;8.372;2023-02-28T11:15:51;8.53;;;6.93;;
14994;SDS011;7593;49.006;8.372;2023-02-28T11:18:21;7.53;;;6.67;;
14994;SDS011;7593;49.006;8.372;2023-02-28T11:20:52;8.27;;;7.37;;
14994;SDS011;7593;49.006;8.372;2023-02-28T11:23:23;7.90;;;6.77;;
14994;SDS011;7593;49.006;8.372;2023-02-28T11:25:53;8.73;;;6.50;;
14994;SDS011;7593;49.006;8.372;2023-02-28T11:28:24;8.13;;;7.00;;
14994;SDS011;7593;49.006;8.372;2023-02-28T11:30:59;8.03;;;7.23;;
14994;SDS011;7593;49.006;8.372;2023-02-28T11:33:28;8.53;;;7.17;;
14994;SDS011;7593;49.006;8.372;2023-02-28T11:35:57;11.63;;;7.33;;
14994;SDS011;7593;49.006;8.372;2023-02-28T11:38:28;9.77;;;7.73;;
14994;SDS011;7593;49.006;8.372;2023-02-28T11:41:00;10.17;;;7.80;;
14994;SDS011;7593;49.006;8.372;2023-02-28T11:43:38;8.87;;;7.57;;
14994;SDS011;7593;49.006;8.372;2023-02-28T11:46:18;8.17;;;6.90;;
14994;SDS011;7593;49.006;8.372;2023-02-28T11:48:54;9.23;;;7.33;;
14994;SDS011;7593;49.006;8.372;2023-02-28T11:51:28;10.50;;;7.90;;
14994;SDS011;7593;49.006;8.372;2023-02-28T11:54:05;9.03;;;7.70;;
14994;SDS011;7593;49.006;8.372;2023-02-28T11:56:55;9.67;;;7.30;;
14994;SDS011;7593;49.006;8.372;2023-02-28T11:59:32;8.18;;;7.28;;
14994;SDS011;7593;49.006;8.372;2023-02-28T12:02:19;8.52;;;7.40;;
14994;SDS011;7593;49.006;8.372;2023-02-28T12:04:52;8.70;;;7.15;;
14994;SDS011;7593;49.006;8.372;2023-02-28T12:07:31;9.45;;;7.82;;
14994;SDS011;7593;49.006;8.372;2023-02-28T12:10:09;7.97;;;7.18;;
14994;SDS011;7593;49.006;8.372;2023-02-28T12:12:47;9.80;;;7.40;;
14994;SDS011;7593;49.006;8.372;2023-02-28T12:15:47;10.98;;;7.47;;
14994;SDS011;7593;49.006;8.372;2023-02-28T12:18:28;12.95;;;7.55;;
14994;SDS011;7593;49.006;8.372;2023-02-28T12:21:04;24.98;;;8.57;;
14994;SDS011;7593;49.006;8.372;2023-02-28T12:23:50;11.60;;;7.70;;
14994;SDS011;7593;49.006;8.372;2023-02-28T12:26:39;8.35;;;7.38;;
14994;SDS011;7593;49.006;8.372;2023-02-28T12:29:10;10.00;;;6.68;;
14994;SDS011;7593;49.006;8.372;2023-02-28T12:31:45;7.25;;;6.55;;
14994;SDS011;7593;49.006;8.372;2023-02-28T12:34:16;10.13;;;7.13;;
14994;SDS011;7593;49.006;8.372;2023-02-28T12:36:46;8.25;;;6.65;;
14994;SDS011;7593;49.006;8.372;2023-02-28T12:39:15;7.43;;;6.65;;
14994;SDS011;7593;49.006;8.372;2023-02-28T12:41:47;10.48;;;7.38;;
14994;SDS011;7593;49.006;8.372;2023-02-28T12:44:17;8.70;;;6.68;;
14994;SDS011;7593;49.006;8.372;2023-02-28T12:46:49;7.60;;;6.65;;
14994;SDS011;7593;49.006;8.372;2023-02-28T12:49:19;7.88;;;6.97;;
14994;SDS011;7593;49.006;8.372;2023-02-28T12:51:51;11.82;;;6.85;;
14994;SDS011;7593;49.006;8.372;2023-02-28T12:54:21;14.18;;;7.15;;
14994;SDS011;7593;49.006;8.372;2023-02-28T12:56:56;7.80;;;6.60;;
14994;SDS011;7593;49.006;8.372;2023-02-28T12:59:31;8.18;;;7.28;;
14994;SDS011;7593;49.006;8.372;2023-02-28T13:05:07;8.48;;;7.38;;
14994;SDS011;7593;49.006;8.372;2023-02-28T13:07:58;10.65;;;7.60;;
14994;SDS011;7593;49.006;8.372;2023-02-28T13:10:41;8.48;;;6.75;;
14994;SDS011;7593;49.006;8.372;2023-02-28T13:13:15;12.57;;;7.43;;
14994;SDS011;7593;49.006;8.372;2023-02-28T13:15:56;8.48;;;7.05;;
14994;SDS011;7593;49.006;8.372;2023-02-28T13:18:30;10.30;;;7.10;;
14994;SDS011;7593;49.006;8.372;2023-02-28T13:21:02;11.43;;;7.30;;
14994;SDS011;7593;49.006;8.372;2023-02-28T13:23:55;11.02;;;7.32;;
14994;SDS011;7593;49.006;8.372;2023-02-28T13:29:35;9.00;;;7.10;;
14994;SDS011;7593;49.006;8.372;2023-02-28T13:32:28;10.65;;;7.60;;
14994;SDS011;7593;49.006;8.372;2023-02-28T13:44:08;11.23;;;8.15;;
14994;SDS011;7593;49.006;8.372;2023-02-28T13:47:15;12.70;;;7.63;;
14994;SDS011;7593;49.006;8.372;2023-02-28T13:56:03;9.13;;;7.22;;
14994;SDS011;7593;49.006;8.372;2023-02-28T13:58:40;10.20;;;7.13;;
14994;SDS011;7593;49.006;8.372;2023-02-28T14:01:16;8.40;;;6.93;;
14994;SDS011;7593;49.006;8.372;2023-02-28T14:04:01;10.25;;;7.55;;
14994;SDS011;7593;49.006;8.372;2023-02-28T14:06:45;8.43;;;7.43;;
14994;SDS011;7593;49.006;8.372;2023-02-28T14:09:17;7.80;;;6.88;;
14994;SDS011;7593;49.006;8.372;2023-02-28T14:11:49;9.40;;;7.13;;
14994;SDS011;7593;49.006;8.372;2023-02-28T14:17:21;8.27;;;7.13;;
14994;SDS011;7593;49.006;8.372;2023-02-28T14:19:50;11.40;;;7.70;;
14994;SDS011;7593;49.006;8.372;2023-02-28T14:22:21;9.25;;;7.75;;
14994;SDS011;7593;49.006;8.372;2023-02-28T14:25:12;11.38;;;7.97;;
14994;SDS011;7593;49.006;8.372;2023-02-28T14:27:48;10.32;;;7.53;;
14994;SDS011;7593;49.006;8.372;2023-02-28T14:33:27;8.63;;;7.72;;
14994;SDS011;7593;49.006;8.372;2023-02-28T14:36:12;11.75;;;9.60;;
14994;SDS011;7593;49.006;8.372;2023-02-28T14:38:45;10.50;;;7.55;;
14994;SDS011;7593;49.006;8.372;2023-02-28T14:41:16;8.95;;;8.02;;
14994;SDS011;7593;49.006;8.372;2023-02-28T14:43:48;10.52;;;7.93;;
14994;SDS011;7593;49.006;8.372;2023-02-28T14:46:20;8.98;;;7.70;;
14994;SDS011;7593;49.006;8.372;2023-02-28T14:48:50;13.10;;;7.82;;
14994;SDS011;7593;49.006;8.372;2023-02-28T14:51:21;9.70;;;7.93;;
14994;SDS011;7593;49.006;8.372;2023-02-28T14:53:51;10.60;;;7.75;;
14994;SDS011;7593;49.006;8.372;2023-02-28T14:56:22;11.50;;;8.02;;
14994;SDS011;7593;49.006;8.372;2023-02-28T14:58:53;8.90;;;7.25;;
14994;SDS011;7593;49.006;8.372;2023-02-28T15:01:22;11.65;;;8.15;;
14994;SDS011;7593;49.006;8.372;2023-02-28T15:03:57;9.70;;;7.07;;
14994;SDS011;7593;49.006;8.372;2023-02-28T15:06:28;8.25;;;7.45;;
14994;SDS011;7593;49.006;8.372;2023-02-28T15:09:08;13.02;;;7.95;;
14994;SDS011;7593;49.006;8.372;2023-02-28T15:11:37;11.20;;;7.68;;
14994;SDS011;7593;49.006;8.372;2023-02-28T15:14:05;10.38;;;7.43;;
14994;SDS011;7593;49.006;8.372;2023-02-28T15:16:33;8.95;;;7.82;;
14994;SDS011;7593;49.006;8.372;2023-02-28T15:19:05;8.75;;;7.32;;
14994;SDS011;7593;49.006;8.372;2023-02-28T15:21:39;9.48;;;7.63;;
14994;SDS011;7593;49.006;8.372;2023-02-28T15:24:11;8.60;;;7.80;;
14994;SDS011;7593;49.006;8.372;2023-02-28T15:26:43;8.93;;;7.47;;
14994;SDS011;7593;49.006;8.372;2023-02-28T15:29:15;8.43;;;7.63;;
14994;SDS011;7593;49.006;8.372;2023-02-28T15:31:48;9.13;;;7.95;;
14994;SDS011;7593;49.006;8.372;2023-02-28T15:34:18;9.13;;;8.27;;
14994;SDS011;7593;49.006;8.372;2023-02-28T15:36:48;9.27;;;8.38;;
14994;SDS011;7593;49.006;8.372;2023-02-28T15:39:18;8.70;;;7.18;;
14994;SDS011;7593;49.006;8.372;2023-02-28T15:41:46;10.27;;;8.75;;
14994;SDS011;7593;49.006;8.372;2023-02-28T15:44:14;9.23;;;7.88;;
14994;SDS011;7593;49.006;8.372;2023-02-28T15:46:43;10.90;;;9.15;;
14994;SDS011;7593;49.006;8.372;2023-02-28T15:49:19;9.15;;;8.25;;
14994;SDS011;7593;49.006;8.372;2023-02-28T15:51:50;9.27;;;8.32;;
14994;SDS011;7593;49.006;8.372;2023-02-28T15:54:20;16.95;;;8.82;;
14994;SDS011;7593;49.006;8.372;2023-02-28T15:56:51;11.93;;;8.35;;
14994;SDS011;7593;49.006;8.372;2023-02-28T15:59:20;9.50;;;8.60;;